This is the latest recevied weather packets stored in our database for station/object W0LTA. If no packets are shown the sender has not sent any weather packets the latest 10 day(s).
| Time | Temp. | Humidity | Pressure | Rain* | Wind** | Luminosity | Snow |
|---|---|---|---|---|---|---|---|
| 1777408486 | 13.89° C | 34% | 1016.5 hPa | 0 mm | - | - | - |
| 1777408182 | 12.78° C | 36% | 1016.7 hPa | 0 mm | - | - | - |
| 1777407878 | 12.22° C | 36% | 1016.7 hPa | 0 mm | - | - | - |
| 1777407570 | 12.78° C | 35% | 1016.7 hPa | 0 mm | - | - | - |
| 1777407267 | 12.22° C | 35% | 1016.7 hPa | 0 mm | - | - | - |
| 1777406976 | 12.22° C | 36% | 1016.7 hPa | 0 mm | - | - | - |
| 1777406367 | 12.78° C | 37% | 1016.7 hPa | 0 mm | - | - | - |
| 1777406099 | 12.78° C | 37% | 1016.5 hPa | 0 mm | - | - | - |
| 1777405491 | 12.78° C | 38% | 1016.3 hPa | 0 mm | - | - | - |
| 1777404890 | 13.89° C | 38% | 1016.2 hPa | 0 mm | - | - | - |
| 1777404287 | 13.89° C | 40% | 1016 hPa | 0 mm | - | - | - |
| 1777403969 | 13.33° C | 38% | 1016.1 hPa | 0 mm | - | - | - |
| 1777403675 | 13.33° C | 39% | 1016 hPa | 0 mm | - | - | - |
| 1777403392 | 12.22° C | 42% | 1016.1 hPa | 0 mm | - | - | - |
| 1777403089 | 12.78° C | 41% | 1016.2 hPa | 0 mm | - | - | - |
| 1777402479 | 12.78° C | 42% | 1016.3 hPa | 0 mm | - | - | - |
| 1777401271 | 11.67° C | 48% | 1016.6 hPa | 0 mm | - | - | - |
| 1777400096 | 11.11° C | 56% | 1016.7 hPa | 0 mm | - | - | - |
| 1777399467 | 11.67° C | 56% | 1016.7 hPa | 0 mm | - | - | - |
| 1777397695 | 8.89° C | 67% | 1016.7 hPa | 0 mm | - | - | - |
| 1777397084 | 9.44° C | 69% | 1016.9 hPa | 0 mm | - | - | - |
| 1777395587 | 6.67° C | 77% | 1017.2 hPa | 0 mm | - | - | - |
| 1777394972 | 6.67° C | 80% | 1017 hPa | 0 mm | - | - | - |
| 1777394690 | 6.11° C | 80% | 1016.7 hPa | 0 mm | - | - | - |
| 1777393487 | 6.11° C | 83% | 1016.8 hPa | 0 mm | - | - | - |
* Rain latest hour (hover to see other rain measurements)
** Current wind speed in m/s (hover to see current wind gust speed)